createdAt,value
2018-07-13T00:01:31.249Z,14.43
2018-07-13T00:04:02.364Z,13.97
2018-07-13T00:06:33.378Z,14.20
2018-07-13T00:09:05.129Z,13.13
2018-07-13T00:11:36.193Z,12.53
2018-07-13T00:14:16.330Z,12.97
2018-07-13T00:16:47.954Z,12.77
2018-07-13T00:19:18.864Z,12.43
2018-07-13T00:21:51.217Z,12.77
2018-07-13T00:24:22.581Z,11.93
2018-07-13T00:26:53.829Z,12.50
2018-07-13T00:29:24.695Z,12.63
2018-07-13T00:31:56.046Z,12.27
2018-07-13T00:34:27.645Z,13.13
2018-07-13T00:36:58.684Z,12.20
2018-07-13T00:39:29.509Z,13.00
2018-07-13T00:42:00.854Z,13.53
2018-07-13T00:44:32.349Z,12.80
2018-07-13T00:47:03.948Z,13.00
2018-07-13T00:49:35.347Z,13.77
2018-07-13T00:52:07.258Z,13.30
2018-07-13T00:54:38.171Z,15.17
2018-07-13T00:57:09.372Z,15.10
2018-07-13T00:59:41.012Z,13.17
2018-07-13T01:02:12.287Z,13.73
2018-07-13T01:04:43.907Z,13.00
2018-07-13T01:07:15.509Z,13.40
2018-07-13T01:09:45.723Z,12.93
2018-07-13T01:12:16.854Z,13.13
2018-07-13T01:14:47.705Z,13.10
2018-07-13T01:17:19.897Z,13.33
2018-07-13T01:19:50.866Z,13.37
2018-07-13T01:22:22.269Z,12.93
2018-07-13T01:24:53.416Z,19.73
2018-07-13T01:27:29.182Z,15.10
2018-07-13T01:30:00.341Z,12.63
2018-07-13T01:32:30.645Z,13.47
2018-07-13T01:35:01.610Z,12.37
2018-07-13T01:37:32.852Z,13.00
2018-07-13T01:40:03.820Z,16.60
2018-07-13T01:42:35.143Z,16.30
2018-07-13T01:45:06.368Z,16.60
2018-07-13T01:47:37.323Z,16.10
2018-07-13T01:50:08.736Z,16.33
2018-07-13T01:52:39.339Z,17.03
2018-07-13T01:55:10.238Z,16.70
2018-07-13T01:57:40.992Z,16.13
2018-07-13T02:00:11.756Z,16.70
2018-07-13T02:02:43.173Z,14.17
2018-07-13T02:05:14.285Z,13.77
2018-07-13T02:07:45.461Z,13.70
2018-07-13T02:10:16.585Z,14.33
2018-07-13T02:12:48.125Z,14.13
2018-07-13T02:15:19.125Z,14.50
2018-07-13T02:17:50.566Z,13.53
2018-07-13T02:20:22.473Z,13.47
2018-07-13T02:22:54.122Z,13.90
2018-07-13T02:25:25.030Z,14.20
2018-07-13T02:27:56.763Z,13.07
2018-07-13T02:30:28.182Z,17.20
2018-07-13T02:32:59.154Z,14.00
2018-07-13T02:35:29.354Z,13.47
2018-07-13T02:38:00.382Z,13.30
2018-07-13T02:40:31.068Z,13.57
2018-07-13T02:43:02.263Z,12.80
2018-07-13T02:45:33.589Z,14.70
2018-07-13T02:48:04.737Z,46.53
2018-07-13T02:50:36.336Z,21.33
2018-07-13T02:53:07.600Z,19.17
2018-07-13T02:55:38.849Z,13.90
2018-07-13T02:58:10.201Z,15.03
2018-07-13T03:00:41.626Z,14.77
2018-07-13T03:03:12.274Z,18.97
2018-07-13T03:05:42.717Z,16.00
2018-07-13T03:08:13.044Z,16.40
2018-07-13T03:10:44.248Z,21.80
2018-07-13T03:13:15.508Z,18.53
2018-07-13T03:15:46.785Z,14.63
2018-07-13T03:18:18.173Z,14.37
2018-07-13T03:20:49.162Z,12.83
2018-07-13T03:23:20.669Z,19.17
2018-07-13T03:25:52.072Z,13.20
2018-07-13T03:28:22.786Z,13.43
2018-07-13T03:30:54.072Z,15.60
2018-07-13T03:33:25.505Z,14.67
2018-07-13T03:35:56.672Z,16.53
2018-07-13T03:38:28.599Z,15.63
2018-07-13T03:40:59.526Z,14.73
2018-07-13T03:43:29.766Z,20.93
2018-07-13T03:46:00.995Z,21.63
2018-07-13T03:48:32.104Z,17.50
2018-07-13T03:51:03.053Z,16.63
2018-07-13T03:53:34.560Z,16.40
2018-07-13T03:56:05.296Z,16.40
2018-07-13T03:58:36.444Z,16.27
2018-07-13T04:01:07.558Z,17.13
2018-07-13T04:03:38.167Z,17.13
2018-07-13T04:06:09.325Z,16.60
2018-07-13T04:08:40.739Z,16.00
2018-07-13T04:11:12.231Z,16.53
2018-07-13T04:13:42.465Z,17.50
2018-07-13T04:16:13.574Z,18.17
2018-07-13T04:18:44.614Z,18.37
2018-07-13T04:21:16.311Z,17.83
2018-07-13T04:23:46.905Z,18.60
2018-07-13T04:26:17.926Z,18.90
2018-07-13T04:28:49.098Z,15.10
2018-07-13T04:31:20.305Z,16.90
2018-07-13T04:33:51.641Z,13.63
2018-07-13T04:36:22.864Z,14.60
2018-07-13T04:38:54.159Z,14.50
2018-07-13T04:41:25.294Z,14.90
2018-07-13T04:43:56.657Z,13.80
2018-07-13T04:46:26.925Z,22.23
2018-07-13T04:48:58.055Z,14.57
2018-07-13T04:51:28.928Z,18.33
2018-07-13T04:54:00.770Z,14.90
2018-07-13T04:56:31.937Z,19.10
2018-07-13T04:59:03.480Z,14.10
2018-07-13T05:01:34.819Z,15.13
2018-07-13T05:04:05.957Z,13.77
2018-07-13T05:06:37.937Z,14.43
2018-07-13T05:09:09.369Z,13.93
2018-07-13T05:11:40.635Z,14.20
2018-07-13T05:14:11.933Z,12.87
2018-07-13T05:16:42.822Z,15.80
2018-07-13T05:19:14.502Z,16.27
2018-07-13T05:21:46.103Z,14.90
2018-07-13T05:24:17.964Z,16.17
2018-07-13T05:26:49.530Z,15.23
2018-07-13T05:29:20.997Z,22.50
2018-07-13T05:31:51.204Z,14.03
2018-07-13T05:34:22.800Z,13.80
2018-07-13T05:36:53.715Z,13.30
2018-07-13T05:39:25.210Z,13.37
2018-07-13T05:41:56.778Z,12.93
2018-07-13T05:44:28.094Z,17.00
2018-07-13T05:46:59.807Z,13.27
2018-07-13T05:49:29.746Z,15.47
2018-07-13T05:52:00.118Z,12.87
2018-07-13T05:54:31.340Z,23.67
2018-07-13T05:57:02.162Z,17.10
2018-07-13T05:59:33.365Z,14.27
2018-07-13T06:02:05.041Z,13.80
2018-07-13T06:04:36.312Z,16.63
2018-07-13T06:07:07.662Z,27.53
2018-07-13T06:09:39.290Z,12.00
2018-07-13T06:12:09.597Z,11.47
2018-07-13T06:14:41.204Z,12.37
2018-07-13T06:17:11.868Z,21.00
2018-07-13T06:19:43.540Z,13.10
2018-07-13T06:22:14.715Z,22.23
2018-07-13T06:24:46.117Z,11.50
2018-07-13T06:27:17.361Z,15.20
2018-07-13T06:29:47.625Z,11.33
2018-07-13T06:32:19.125Z,29.17
2018-07-13T06:34:50.397Z,21.00
2018-07-13T06:37:21.428Z,17.83
2018-07-13T06:39:53.249Z,13.77
2018-07-13T06:42:25.191Z,11.87
2018-07-13T06:44:56.405Z,11.20
2018-07-13T06:47:27.686Z,11.40
2018-07-13T06:49:59.103Z,9.80
2018-07-13T06:52:29.410Z,10.90
2018-07-13T06:55:00.835Z,10.73
2018-07-13T06:57:42.510Z,11.63
2018-07-13T07:00:58.401Z,11.83
2018-07-13T07:03:30.139Z,12.47
2018-07-13T07:06:02.808Z,12.03
2018-07-13T07:08:33.877Z,11.50
2018-07-13T07:11:04.052Z,11.80
2018-07-13T07:13:39.208Z,11.60
2018-07-13T07:16:10.484Z,11.17
2018-07-13T07:18:41.831Z,10.83
2018-07-13T07:21:12.262Z,11.20
2018-07-13T07:23:43.187Z,11.37
2018-07-13T07:26:13.436Z,19.80
2018-07-13T07:28:43.430Z,11.07
2018-07-13T07:31:13.485Z,10.67
2018-07-13T07:33:44.521Z,21.73
2018-07-13T07:36:16.031Z,10.90
2018-07-13T07:38:47.364Z,9.77
2018-07-13T07:41:18.995Z,10.70
2018-07-13T07:43:50.797Z,10.67
2018-07-13T07:46:22.585Z,33.17
2018-07-13T07:48:54.883Z,17.93
2018-07-13T07:51:26.518Z,18.20
2018-07-13T07:53:58.220Z,11.03
2018-07-13T07:56:29.206Z,10.93
2018-07-13T07:59:00.825Z,10.53
2018-07-13T08:01:31.647Z,11.23
2018-07-13T08:04:02.132Z,23.13
2018-07-13T08:06:33.893Z,9.93
2018-07-13T08:09:06.883Z,9.57
2018-07-13T08:11:38.125Z,38.50
2018-07-13T08:14:10.471Z,21.37
2018-07-13T08:16:41.818Z,125.53
2018-07-13T08:19:13.346Z,22.23
2018-07-13T08:21:45.197Z,10.63
2018-07-13T08:24:22.301Z,8.97
2018-07-13T08:26:58.965Z,9.50
2018-07-13T08:29:33.428Z,16.77
2018-07-13T08:32:04.044Z,10.23
2018-07-13T08:34:36.053Z,43.10
2018-07-13T08:37:06.568Z,33.37
2018-07-13T08:39:38.127Z,13.20
2018-07-13T08:42:09.544Z,9.87
2018-07-13T08:44:41.652Z,10.43
2018-07-13T08:47:13.271Z,10.77
2018-07-13T08:49:44.646Z,10.17
2018-07-13T08:52:15.889Z,10.03
2018-07-13T08:54:46.993Z,9.63
2018-07-13T08:57:17.275Z,10.13
2018-07-13T08:59:47.821Z,10.50
2018-07-13T09:02:19.188Z,9.83
2018-07-13T09:04:50.132Z,10.07
2018-07-13T09:07:21.528Z,10.20
2018-07-13T09:09:52.490Z,9.43
2018-07-13T09:12:23.721Z,10.27
2018-07-13T09:14:55.571Z,10.60
2018-07-13T09:17:26.369Z,8.70
2018-07-13T09:19:57.660Z,10.13
2018-07-13T09:22:28.526Z,9.27
2018-07-13T09:24:59.889Z,9.30
2018-07-13T09:27:30.940Z,9.57
2018-07-13T09:30:01.881Z,9.03
2018-07-13T09:32:33.029Z,9.20
2018-07-13T09:35:03.858Z,8.80
2018-07-13T09:37:34.955Z,9.30
2018-07-13T09:40:05.642Z,8.60
2018-07-13T09:42:37.186Z,8.50
2018-07-13T09:45:08.408Z,8.00
2018-07-13T09:47:39.632Z,8.20
2018-07-13T09:50:11.323Z,7.70
2018-07-13T09:52:42.867Z,7.17
2018-07-13T09:55:13.981Z,9.37
2018-07-13T09:57:45.575Z,7.83
2018-07-13T10:00:16.815Z,8.43
2018-07-13T10:02:48.835Z,8.25
2018-07-13T10:05:19.242Z,8.37
2018-07-13T10:07:51.129Z,9.97
2018-07-13T10:10:22.849Z,7.27
2018-07-13T10:12:54.513Z,7.20
2018-07-13T10:15:26.123Z,8.13
2018-07-13T10:17:58.274Z,8.70
2018-07-13T10:20:29.290Z,7.87
2018-07-13T10:23:00.920Z,8.90
2018-07-13T10:25:32.851Z,8.40
2018-07-13T10:28:04.807Z,8.63
2018-07-13T10:30:38.008Z,8.47
2018-07-13T10:33:09.769Z,8.08
2018-07-13T10:35:41.913Z,8.20
2018-07-13T10:38:13.806Z,8.35
2018-07-13T10:40:45.265Z,7.83
2018-07-13T10:43:16.365Z,8.28
2018-07-13T10:45:48.168Z,8.85
2018-07-13T10:48:20.319Z,10.00
2018-07-13T10:50:51.830Z,10.40
2018-07-13T10:53:24.486Z,13.08
2018-07-13T10:55:56.333Z,11.30
2018-07-13T10:58:28.315Z,10.18
2018-07-13T11:00:59.796Z,11.10
2018-07-13T11:03:31.504Z,12.35
2018-07-13T11:06:03.177Z,12.82
2018-07-13T11:08:34.744Z,12.03
2018-07-13T11:11:06.401Z,11.57
2018-07-13T11:13:37.001Z,12.07
2018-07-13T11:16:08.851Z,11.60
2018-07-13T11:18:40.814Z,11.10
2018-07-13T11:21:12.796Z,11.00
2018-07-13T11:23:44.444Z,11.15
2018-07-13T11:26:15.711Z,12.03
2018-07-13T11:28:47.335Z,12.05
2018-07-13T11:31:18.751Z,12.73
2018-07-13T11:33:50.521Z,12.28
2018-07-13T11:36:22.442Z,11.50
2018-07-13T11:38:52.678Z,11.18
2018-07-13T11:41:24.069Z,10.08
2018-07-13T11:43:56.247Z,10.95
2018-07-13T11:46:27.541Z,10.03
2018-07-13T11:48:59.451Z,10.28
2018-07-13T11:51:30.613Z,9.95
2018-07-13T11:54:01.639Z,10.00
2018-07-13T11:56:32.079Z,11.25
2018-07-13T11:59:03.056Z,10.85
2018-07-13T12:01:34.330Z,9.85
2018-07-13T12:04:05.402Z,9.20
2018-07-13T12:06:35.643Z,10.23
2018-07-13T12:09:07.041Z,10.08
2018-07-13T12:11:38.474Z,9.93
2018-07-13T12:14:09.625Z,9.50
2018-07-13T12:16:41.123Z,15.40
2018-07-13T12:19:12.397Z,9.40
2018-07-13T12:21:44.141Z,16.65
2018-07-13T12:24:14.487Z,13.18
2018-07-13T12:26:45.745Z,11.78
2018-07-13T12:29:17.039Z,11.80
2018-07-13T12:31:48.282Z,12.50
2018-07-13T12:34:19.275Z,14.03
2018-07-13T12:36:50.009Z,12.00
2018-07-13T12:39:21.402Z,12.37
2018-07-13T12:41:52.228Z,14.13
2018-07-13T12:44:23.392Z,17.43
2018-07-13T12:46:54.637Z,14.33
2018-07-13T12:49:25.938Z,14.60
2018-07-13T12:51:56.848Z,13.77
2018-07-13T12:54:28.316Z,13.77
2018-07-13T12:56:59.409Z,13.93
2018-07-13T12:59:30.846Z,15.60
2018-07-13T13:02:02.348Z,15.50
2018-07-13T13:04:33.648Z,15.50
2018-07-13T13:07:05.111Z,15.50
2018-07-13T13:09:37.048Z,14.83
2018-07-13T13:12:09.158Z,17.20
2018-07-13T13:14:40.940Z,16.83
2018-07-13T13:17:12.775Z,17.33
2018-07-13T13:19:44.751Z,19.60
2018-07-13T13:22:16.117Z,13.20
2018-07-13T13:24:47.668Z,16.73
2018-07-13T13:27:20.249Z,13.87
2018-07-13T13:29:50.581Z,14.80
2018-07-13T13:32:20.961Z,15.20
2018-07-13T13:34:51.338Z,19.40
2018-07-13T13:37:22.106Z,17.73
2018-07-13T13:39:52.369Z,17.37
2018-07-13T13:42:23.022Z,17.87
2018-07-13T13:44:52.935Z,25.40
2018-07-13T13:47:23.131Z,20.10
2018-07-13T13:49:54.429Z,26.50
2018-07-13T13:52:24.662Z,23.27
2018-07-13T13:54:55.086Z,20.27
2018-07-13T13:57:26.131Z,18.90
2018-07-13T13:59:57.331Z,18.97
2018-07-13T14:02:27.918Z,16.63
2018-07-13T14:04:57.959Z,13.33
2018-07-13T14:07:28.092Z,13.63
2018-07-13T14:09:58.519Z,20.83
2018-07-13T14:12:29.086Z,13.33
2018-07-13T14:14:59.317Z,13.77
2018-07-13T14:17:29.496Z,11.87
2018-07-13T14:19:59.717Z,17.63
2018-07-13T14:22:30.112Z,12.43
2018-07-13T14:25:00.389Z,15.13
2018-07-13T14:27:30.407Z,11.30
2018-07-13T14:30:00.688Z,13.40
2018-07-13T14:32:30.850Z,9.60
2018-07-13T14:35:01.207Z,10.90
2018-07-13T14:37:31.296Z,10.43
2018-07-13T14:40:01.596Z,12.37
2018-07-13T14:42:31.834Z,13.80
2018-07-13T14:45:02.225Z,12.17
2018-07-13T14:47:32.505Z,14.07
2018-07-13T14:50:02.632Z,12.83
2018-07-13T14:52:32.938Z,12.93
2018-07-13T14:55:03.164Z,14.00
2018-07-13T14:57:33.451Z,14.27
2018-07-13T15:00:03.489Z,15.70
2018-07-13T15:02:33.786Z,15.37
2018-07-13T15:05:03.988Z,14.80
2018-07-13T15:07:34.278Z,17.23
2018-07-13T15:10:04.586Z,19.40
2018-07-13T15:12:35.569Z,17.23
2018-07-13T15:15:05.922Z,16.43
2018-07-13T15:17:36.058Z,14.13
2018-07-13T15:20:06.398Z,27.40
2018-07-13T15:22:36.592Z,22.47
2018-07-13T15:25:06.877Z,17.17
2018-07-13T15:27:38.826Z,15.53
2018-07-13T15:30:10.131Z,14.23
2018-07-13T15:32:40.270Z,14.77
2018-07-13T15:35:10.443Z,15.23
2018-07-13T15:37:40.994Z,14.43
2018-07-13T15:40:11.346Z,13.60
2018-07-13T15:42:41.993Z,14.33
2018-07-13T15:45:12.415Z,14.50
2018-07-13T15:47:42.971Z,13.53
2018-07-13T15:50:13.451Z,14.50
2018-07-13T15:52:43.727Z,15.70
2018-07-13T15:55:13.930Z,14.53
2018-07-13T15:57:44.296Z,24.87
2018-07-13T16:00:14.414Z,14.93
2018-07-13T16:02:44.963Z,17.17
2018-07-13T16:05:15.120Z,13.33
2018-07-13T16:07:45.376Z,13.03
2018-07-13T16:10:15.670Z,11.73
2018-07-13T16:12:45.879Z,9.47
2018-07-13T16:15:16.163Z,9.80
2018-07-13T16:17:46.543Z,9.43
2018-07-13T16:20:16.682Z,8.63
2018-07-13T16:22:47.041Z,8.50
2018-07-13T16:25:17.477Z,8.50
2018-07-13T16:27:47.746Z,7.33
2018-07-13T16:30:18.116Z,7.07
2018-07-13T16:32:48.545Z,10.60
2018-07-13T16:35:18.917Z,10.03
2018-07-13T16:37:49.321Z,7.60
2018-07-13T16:40:19.504Z,7.20
2018-07-13T16:42:49.976Z,7.77
2018-07-13T16:45:20.320Z,8.67
2018-07-13T16:47:51.056Z,8.20
2018-07-13T16:50:21.861Z,9.90
2018-07-13T16:52:52.537Z,8.60
2018-07-13T16:55:23.002Z,8.80
2018-07-13T16:57:53.325Z,10.13
2018-07-13T17:00:23.748Z,9.43
2018-07-13T17:02:54.032Z,9.40
2018-07-13T17:05:24.584Z,10.67
2018-07-13T17:07:54.844Z,10.03
2018-07-13T17:10:25.087Z,8.87
2018-07-13T17:12:55.338Z,9.70
2018-07-13T17:15:25.780Z,9.20
2018-07-13T17:17:56.086Z,9.77
2018-07-13T17:20:27.124Z,9.57
2018-07-13T17:22:57.961Z,10.20
2018-07-13T17:25:29.527Z,12.60
2018-07-13T17:28:01.039Z,13.33
2018-07-13T17:30:32.641Z,13.43
2018-07-13T17:33:04.282Z,9.97
2018-07-13T17:35:35.602Z,10.83
2018-07-13T17:38:07.180Z,10.57
2018-07-13T17:40:37.739Z,10.57
2018-07-13T17:43:08.184Z,11.03
2018-07-13T17:45:39.165Z,12.43
2018-07-13T17:48:09.616Z,11.77
2018-07-13T17:50:39.942Z,13.03
2018-07-13T17:53:10.047Z,14.70
2018-07-13T17:55:40.284Z,13.20
2018-07-13T17:58:10.630Z,12.83
2018-07-13T18:00:41.692Z,12.77
2018-07-13T18:03:12.989Z,14.20
2018-07-13T18:05:48.852Z,13.57
2018-07-13T18:08:24.605Z,20.47
2018-07-13T18:11:02.255Z,16.37
2018-07-13T18:13:35.766Z,15.13
2018-07-13T18:16:09.769Z,18.03
2018-07-13T18:18:39.950Z,16.60
2018-07-13T18:21:10.376Z,19.03
2018-07-13T18:23:40.584Z,15.07
2018-07-13T18:26:10.798Z,15.83
2018-07-13T18:28:41.061Z,16.77
2018-07-13T18:31:11.377Z,20.97
2018-07-13T18:33:41.994Z,18.50
2018-07-13T18:36:12.532Z,20.60
2018-07-13T18:38:43.305Z,17.53
2018-07-13T18:41:14.321Z,17.43
2018-07-13T18:43:46.300Z,17.40
2018-07-13T18:46:17.853Z,23.17
2018-07-13T18:48:49.657Z,18.50
2018-07-13T18:51:21.508Z,15.80
2018-07-13T18:53:51.951Z,16.80
2018-07-13T19:03:10.777Z,17.20
2018-07-13T19:05:41.099Z,17.30
2018-07-13T19:08:11.322Z,18.40
2018-07-13T19:10:41.505Z,16.97
2018-07-13T19:13:11.878Z,22.47
2018-07-13T19:15:42.336Z,19.50
2018-07-13T19:18:12.648Z,20.33
2018-07-13T19:20:42.977Z,20.30
2018-07-13T19:23:13.275Z,20.87
2018-07-13T19:25:43.611Z,20.77
2018-07-13T19:28:13.772Z,21.60
2018-07-13T19:30:44.087Z,23.07
2018-07-13T19:33:14.264Z,23.30
2018-07-13T19:35:44.398Z,22.43
2018-07-13T19:38:14.731Z,22.77
2018-07-13T19:40:44.923Z,22.73
2018-07-13T19:43:15.164Z,21.07
2018-07-13T19:45:45.185Z,21.63
2018-07-13T19:48:15.540Z,20.17
2018-07-13T19:50:46.267Z,20.37
2018-07-13T19:53:17.270Z,22.67
2018-07-13T19:55:48.218Z,24.00
2018-07-13T19:58:19.967Z,24.67
2018-07-13T20:00:50.952Z,23.10
2018-07-13T20:03:22.798Z,22.43
2018-07-13T20:05:54.111Z,22.97
2018-07-13T20:08:25.504Z,24.47
2018-07-13T20:10:56.578Z,26.30
2018-07-13T20:13:27.409Z,27.50
2018-07-13T20:15:58.594Z,27.33
2018-07-13T20:18:29.656Z,26.93
2018-07-13T20:21:00.985Z,27.60
2018-07-13T20:23:32.197Z,28.43
2018-07-13T20:26:03.444Z,28.83
2018-07-13T20:28:35.298Z,32.47
2018-07-13T20:31:06.416Z,32.27
2018-07-13T20:33:37.819Z,30.33
2018-07-13T20:36:09.005Z,32.43
2018-07-13T20:38:40.420Z,30.17
2018-07-13T20:41:11.741Z,30.37
2018-07-13T20:43:43.239Z,31.00
2018-07-13T20:46:14.428Z,32.07
2018-07-13T20:48:45.326Z,32.53
2018-07-13T20:51:16.557Z,28.33
2018-07-13T20:53:47.905Z,26.70
2018-07-13T20:56:22.128Z,28.27
2018-07-13T20:58:53.457Z,28.97
2018-07-13T21:01:24.831Z,30.03
2018-07-13T21:03:56.313Z,30.90
2018-07-13T21:06:27.938Z,27.80
2018-07-13T21:08:59.819Z,28.40
2018-07-13T21:11:31.176Z,29.57
2018-07-13T21:14:02.770Z,29.43
2018-07-13T21:16:34.055Z,30.30
2018-07-13T21:19:05.539Z,29.47
2018-07-13T21:21:36.580Z,27.80
2018-07-13T21:24:07.914Z,30.33
2018-07-13T21:26:38.550Z,30.70
2018-07-13T21:29:09.846Z,32.87
2018-07-13T21:31:41.183Z,31.93
2018-07-13T21:34:12.701Z,32.53
2018-07-13T21:36:44.324Z,33.03
2018-07-13T21:39:16.045Z,32.13
2018-07-13T21:41:47.767Z,32.50
2018-07-13T21:44:19.296Z,34.83
2018-07-13T21:46:51.185Z,34.97
2018-07-13T21:49:23.004Z,34.77
2018-07-13T21:51:53.766Z,32.20
2018-07-13T21:54:25.513Z,31.93
2018-07-13T21:56:56.708Z,35.47
2018-07-13T21:59:27.780Z,34.17
2018-07-13T22:01:58.838Z,30.00
2018-07-13T22:04:30.089Z,31.80
2018-07-13T22:07:00.533Z,29.50
2018-07-13T22:09:32.039Z,29.00
2018-07-13T22:12:03.194Z,32.40
2018-07-13T22:14:34.386Z,32.27
2018-07-13T22:17:06.032Z,31.90
2018-07-13T22:19:37.258Z,30.43
2018-07-13T22:22:07.788Z,31.20
2018-07-13T22:24:39.111Z,30.87
2018-07-13T22:27:10.566Z,30.13
2018-07-13T22:29:42.145Z,31.07
2018-07-13T22:32:13.319Z,29.83
2018-07-13T22:34:44.474Z,30.73
2018-07-13T22:37:15.664Z,32.67
2018-07-13T22:39:46.884Z,30.47
2018-07-13T22:42:18.173Z,30.87
2018-07-13T22:44:49.374Z,30.93
2018-07-13T22:47:20.279Z,33.13
2018-07-13T22:49:51.297Z,32.67
2018-07-13T22:52:22.971Z,36.60
2018-07-13T22:54:53.996Z,32.13
2018-07-13T22:57:25.379Z,35.13
2018-07-13T22:59:56.813Z,31.83
2018-07-13T23:02:27.439Z,31.27
2018-07-13T23:04:58.751Z,32.30
2018-07-13T23:07:30.647Z,31.93
2018-07-13T23:10:01.484Z,32.00
2018-07-13T23:12:32.648Z,32.83
2018-07-13T23:15:04.972Z,32.47
2018-07-13T23:17:36.058Z,34.23
2018-07-13T23:20:07.382Z,35.33
2018-07-13T23:22:38.891Z,34.00
2018-07-13T23:25:10.189Z,33.80
2018-07-13T23:27:41.849Z,34.63
2018-07-13T23:30:12.944Z,35.37
2018-07-13T23:32:43.626Z,35.80
2018-07-13T23:35:14.900Z,36.50
2018-07-13T23:37:46.285Z,35.33
2018-07-13T23:40:17.797Z,35.90
2018-07-13T23:42:49.060Z,38.97
2018-07-13T23:45:20.357Z,37.30
2018-07-13T23:47:50.928Z,38.40
2018-07-13T23:50:22.455Z,36.97
2018-07-13T23:52:53.816Z,39.17
2018-07-13T23:55:24.834Z,37.83
2018-07-13T23:57:55.556Z,44.20
